Time;durP1;ratioP1;P1;durP2;ratioP2;P2;SDS_P1;SDS_P2;PMS_P1;PMS_P2;Temp;Humidity;BMP_temperature;BMP_pressure;BME280_temperature;BME280_humidity;BME280_pressure;Samples;Min_cycle;Max_cycle;Signal;HPM_P1;HPM_P2
2023/03/28 00:00:46;;;;;;;4.68;0.90;;;;;;;;;;5034274;28;20025;-68
2023/03/28 00:03:13;;;;;;;2.58;0.90;;;;;;;;;;5034211;28;20424;-68
2023/03/28 00:05:43;;;;;;;4.05;1.08;;;;;;;;;;5033542;28;20034;-68
2023/03/28 00:08:10;;;;;;;3.95;1.02;;;;;;;;;;5034383;28;20025;-68
2023/03/28 00:10:37;;;;;;;1.77;0.85;;;;;;;;;;5034249;28;20025;-70
2023/03/28 00:13:03;;;;;;;6.57;1.10;;;;;;;;;;5034077;28;20048;-70
2023/03/28 00:15:30;;;;;;;3.45;0.98;;;;;;;;;;5033795;28;20486;-68
2023/03/28 00:17:58;;;;;;;8.80;2.00;;;;;;;;;;5033741;28;20026;-68
2023/03/28 00:20:24;;;;;;;5.38;1.15;;;;;;;;;;5032598;28;20040;-69
2023/03/28 00:22:50;;;;;;;3.15;1.00;;;;;;;;;;5033484;28;20060;-68
2023/03/28 00:25:17;;;;;;;4.65;1.50;;;;;;;;;;5033647;28;20049;-68
2023/03/28 00:27:43;;;;;;;4.85;1.25;;;;;;;;;;5032523;28;20018;-69
2023/03/28 00:30:09;;;;;;;2.55;0.80;;;;;;;;;;5033056;28;20493;-69
2023/03/28 00:32:36;;;;;;;2.78;1.17;;;;;;;;;;5033374;28;20637;-67
2023/03/28 00:35:02;;;;;;;3.15;0.82;;;;;;;;;;5033724;28;20596;-67
2023/03/28 00:37:28;;;;;;;3.22;1.00;;;;;;;;;;5033008;28;20482;-67
2023/03/28 00:39:54;;;;;;;3.00;0.85;;;;;;;;;;5033342;28;20026;-67
2023/03/28 00:42:21;;;;;;;4.40;1.00;;;;;;;;;;5033312;28;20037;-67
2023/03/28 00:44:52;;;;;;;6.93;1.30;;;;;;;;;;5033318;28;20018;-67
2023/03/28 00:47:24;;;;;;;2.28;1.27;;;;;;;;;;5033297;28;20036;-67
2023/03/28 00:49:52;;;;;;;2.78;1.38;;;;;;;;;;5033463;28;20079;-68
2023/03/28 00:52:19;;;;;;;4.22;1.40;;;;;;;;;;5033187;28;20108;-66
2023/03/28 00:54:46;;;;;;;4.85;1.20;;;;;;;;;;5032914;28;20044;-68
2023/03/28 00:57:13;;;;;;;7.75;1.38;;;;;;;;;;5033323;28;20026;-68
2023/03/28 00:59:39;;;;;;;2.45;1.15;;;;;;;;;;5033378;28;20060;-68
2023/03/28 01:02:06;;;;;;;4.03;1.20;;;;;;;;;;5033052;28;20021;-67
2023/03/28 01:04:52;;;;;;;6.07;1.20;;;;;;;;;;5031775;28;20027;-67
2023/03/28 01:07:18;;;;;;;3.25;1.08;;;;;;;;;;5032304;28;20038;-68
2023/03/28 01:09:45;;;;;;;5.28;0.95;;;;;;;;;;5032237;28;20049;-67
2023/03/28 01:12:12;;;;;;;4.45;1.20;;;;;;;;;;5032845;28;20041;-67
2023/03/28 01:14:38;;;;;;;8.90;1.40;;;;;;;;;;5032742;28;20104;-68
2023/03/28 01:17:05;;;;;;;7.13;1.40;;;;;;;;;;5032545;28;20527;-67
2023/03/28 01:19:43;;;;;;;2.67;1.30;;;;;;;;;;5032695;28;20351;-67
2023/03/28 01:22:15;;;;;;;8.55;1.77;;;;;;;;;;5032672;28;20029;-68
2023/03/28 01:25:02;;;;;;;5.88;1.10;;;;;;;;;;5032347;28;20030;-67
2023/03/28 01:27:37;;;;;;;7.00;1.75;;;;;;;;;;5031706;28;20072;-68
2023/03/28 01:30:12;;;;;;;4.55;1.40;;;;;;;;;;5032659;28;20028;-68
2023/03/28 01:32:38;;;;;;;4.72;1.30;;;;;;;;;;5032393;28;20033;-68
2023/03/28 01:35:13;;;;;;;4.60;1.15;;;;;;;;;;5031045;28;20029;-66
2023/03/28 01:37:51;;;;;;;5.63;1.30;;;;;;;;;;5032362;28;20449;-67
2023/03/28 01:40:29;;;;;;;4.00;1.13;;;;;;;;;;5032237;28;20042;-69
2023/03/28 01:43:07;;;;;;;4.57;1.00;;;;;;;;;;5030779;28;20104;-69
2023/03/28 01:45:36;;;;;;;7.50;1.30;;;;;;;;;;5032375;28;20446;-67
2023/03/28 01:48:21;;;;;;;4.15;1.40;;;;;;;;;;5032001;28;20091;-68
2023/03/28 01:50:47;;;;;;;6.90;1.75;;;;;;;;;;5031969;28;20021;-68
2023/03/28 01:53:20;;;;;;;3.90;1.50;;;;;;;;;;5032009;28;20055;-68
2023/03/28 01:55:56;;;;;;;5.68;1.20;;;;;;;;;;5032096;28;20029;-68
2023/03/28 01:58:41;;;;;;;7.40;1.55;;;;;;;;;;5039804;28;20036;-66
2023/03/28 02:01:13;;;;;;;1.83;1.10;;;;;;;;;;5030559;28;20037;-67
2023/03/28 02:03:41;;;;;;;6.38;1.85;;;;;;;;;;5031922;28;20017;-68
2023/03/28 02:06:09;;;;;;;4.93;1.50;;;;;;;;;;5030592;28;20033;-68
2023/03/28 02:08:36;;;;;;;6.35;1.42;;;;;;;;;;5030635;28;20498;-68
2023/03/28 02:11:03;;;;;;;10.18;2.08;;;;;;;;;;5031800;28;20025;-67
2023/03/28 02:13:32;;;;;;;6.47;1.30;;;;;;;;;;5031750;28;20036;-66
2023/03/28 02:15:59;;;;;;;6.88;1.48;;;;;;;;;;5031083;28;20083;-67
2023/03/28 02:18:29;;;;;;;10.95;1.85;;;;;;;;;;5031528;28;20029;-67
2023/03/28 02:21:01;;;;;;;4.65;1.55;;;;;;;;;;5031686;28;20028;-67
2023/03/28 02:23:34;;;;;;;5.93;1.58;;;;;;;;;;5031637;28;20064;-67
2023/03/28 02:26:00;;;;;;;9.88;1.60;;;;;;;;;;5031627;28;20075;-67
2023/03/28 02:28:27;;;;;;;9.55;1.73;;;;;;;;;;5030109;28;20080;-67
2023/03/28 02:30:54;;;;;;;14.25;1.90;;;;;;;;;;5030850;28;20033;-67
2023/03/28 02:33:38;;;;;;;3.72;1.60;;;;;;;;;;5030112;28;20509;-67
2023/03/28 02:36:23;;;;;;;15.38;3.03;;;;;;;;;;5031251;28;20021;-67
2023/03/28 02:38:55;;;;;;;4.53;1.50;;;;;;;;;;5031306;28;20049;-67
2023/03/28 02:41:21;;;;;;;;;;;;;;;;;;5031501;28;20697;-67
2023/03/28 02:43:54;;;;;;;5.07;1.25;;;;;;;;;;5031497;28;19909;-67
2023/03/28 02:46:21;;;;;;;6.25;1.65;;;;;;;;;;5030841;28;20025;-67
2023/03/28 02:48:52;;;;;;;3.05;1.33;;;;;;;;;;5031118;28;20057;-67
2023/03/28 02:51:18;;;;;;;6.10;1.40;;;;;;;;;;5031044;28;20036;-66
2023/03/28 02:53:44;;;;;;;8.07;1.88;;;;;;;;;;5030969;28;20108;-67
2023/03/28 02:56:20;;;;;;;6.95;1.40;;;;;;;;;;5031080;28;20477;-67
2023/03/28 02:58:58;;;;;;;9.80;2.00;;;;;;;;;;5031255;28;20639;-67
2023/03/28 03:01:27;;;;;;;6.90;1.40;;;;;;;;;;5031068;28;20513;-68
2023/03/28 03:03:54;;;;;;;9.57;1.73;;;;;;;;;;5030678;28;20032;-66
2023/03/28 03:06:20;;;;;;;7.38;1.80;;;;;;;;;;5031044;28;20026;-68
2023/03/28 03:08:46;;;;;;;10.88;1.55;;;;;;;;;;5031125;28;20032;-67
2023/03/28 03:11:12;;;;;;;6.18;1.23;;;;;;;;;;5030996;28;20140;-67
2023/03/28 03:13:38;;;;;;;7.03;1.70;;;;;;;;;;5031162;28;20038;-67
2023/03/28 03:16:04;;;;;;;8.73;1.58;;;;;;;;;;5031052;28;20052;-68
2023/03/28 03:18:31;;;;;;;7.32;1.63;;;;;;;;;;5029667;28;20362;-67
2023/03/28 03:21:00;;;;;;;6.20;1.55;;;;;;;;;;5044445;28;20032;-68
2023/03/28 03:23:26;;;;;;;6.18;1.48;;;;;;;;;;5051042;28;20028;-67
2023/03/28 03:25:52;;;;;;;5.53;1.90;;;;;;;;;;5050842;28;20082;-68
2023/03/28 03:28:18;;;;;;;8.50;1.80;;;;;;;;;;5050576;28;20029;-68
2023/03/28 03:30:45;;;;;;;10.13;1.90;;;;;;;;;;5049406;28;20025;-68
2023/03/28 03:33:13;;;;;;;6.93;1.27;;;;;;;;;;5050701;28;20095;-68
2023/03/28 03:35:40;;;;;;;8.70;1.73;;;;;;;;;;5044220;28;20084;-67
2023/03/28 03:38:07;;;;;;;4.72;1.52;;;;;;;;;;5042603;28;20118;-67
2023/03/28 03:40:33;;;;;;;9.98;1.95;;;;;;;;;;5030708;28;20053;-67
2023/03/28 03:42:59;;;;;;;5.53;1.38;;;;;;;;;;5030748;28;20061;-66
2023/03/28 03:45:25;;;;;;;13.10;2.00;;;;;;;;;;5030846;28;20028;-67
2023/03/28 03:47:52;;;;;;;9.98;1.63;;;;;;;;;;5030646;28;20025;-66
2023/03/28 03:50:18;;;;;;;2.85;1.55;;;;;;;;;;5030620;28;20068;-68
2023/03/28 03:52:44;;;;;;;4.70;1.55;;;;;;;;;;5030699;28;20041;-68
2023/03/28 03:55:10;;;;;;;6.97;1.92;;;;;;;;;;5030082;28;20029;-66
2023/03/28 03:57:36;;;;;;;5.60;1.92;;;;;;;;;;5032959;28;20034;-68
2023/03/28 04:00:10;;;;;;;6.28;2.70;;;;;;;;;;5030630;28;20540;-69
2023/03/28 04:02:36;;;;;;;13.18;2.28;;;;;;;;;;5030544;28;20069;-66
2023/03/28 04:05:02;;;;;;;9.75;1.67;;;;;;;;;;5031121;28;20021;-67
2023/03/28 04:07:28;;;;;;;11.10;2.15;;;;;;;;;;5034377;28;20029;-67
2023/03/28 04:09:54;;;;;;;11.70;2.30;;;;;;;;;;5034069;28;20018;-67
2023/03/28 04:12:20;;;;;;;7.63;1.90;;;;;;;;;;5033960;28;20135;-67
2023/03/28 04:14:46;;;;;;;9.80;1.90;;;;;;;;;;5033365;28;20489;-66
2023/03/28 04:17:12;;;;;;;7.18;2.22;;;;;;;;;;5033778;28;20095;-67
2023/03/28 04:19:39;;;;;;;8.00;1.70;;;;;;;;;;5033871;28;20083;-68
2023/03/28 04:22:07;;;;;;;12.77;2.30;;;;;;;;;;5033786;28;20040;-67
2023/03/28 04:24:35;;;;;;;10.57;1.90;;;;;;;;;;5033589;28;20046;-67
2023/03/28 04:27:02;;;;;;;10.38;1.85;;;;;;;;;;5033620;28;20486;-67
2023/03/28 04:29:31;;;;;;;7.32;1.95;;;;;;;;;;5033259;28;20060;-67
2023/03/28 04:31:58;;;;;;;7.70;1.95;;;;;;;;;;5033420;28;20044;-68
2023/03/28 04:34:30;;;;;;;7.10;2.05;;;;;;;;;;5033639;28;20117;-66
2023/03/28 04:37:00;;;;;;;9.85;2.00;;;;;;;;;;5033606;28;20037;-67
2023/03/28 04:39:35;;;;;;;6.47;2.30;;;;;;;;;;5033347;28;20109;-67
2023/03/28 04:42:04;;;;;;;6.65;2.03;;;;;;;;;;5033384;28;20043;-67
2023/03/28 04:44:30;;;;;;;11.82;2.22;;;;;;;;;;5032889;28;20043;-67
2023/03/28 04:46:57;;;;;;;7.43;2.40;;;;;;;;;;5033326;28;20026;-68
2023/03/28 04:49:23;;;;;;;9.68;2.25;;;;;;;;;;5033321;28;20025;-68
2023/03/28 04:51:49;;;;;;;12.15;2.20;;;;;;;;;;5033320;28;20485;-67
2023/03/28 04:54:16;;;;;;;6.70;1.83;;;;;;;;;;5033131;28;20032;-67
2023/03/28 04:56:44;;;;;;;10.20;2.40;;;;;;;;;;5033075;28;20017;-67
2023/03/28 04:59:13;;;;;;;6.15;2.10;;;;;;;;;;5032462;28;20021;-67
2023/03/28 05:01:39;;;;;;;8.23;2.83;;;;;;;;;;5033082;28;20597;-67
2023/03/28 05:04:05;;;;;;;11.07;2.97;;;;;;;;;;5031825;28;20025;-67
2023/03/28 05:06:31;;;;;;;12.35;2.20;;;;;;;;;;5032841;28;20025;-68
2023/03/28 05:08:57;;;;;;;10.82;2.70;;;;;;;;;;5032848;28;20151;-66
2023/03/28 05:11:24;;;;;;;13.38;2.70;;;;;;;;;;5032698;28;20115;-68
2023/03/28 05:13:50;;;;;;;7.25;2.63;;;;;;;;;;5032870;28;20049;-68
2023/03/28 05:16:16;;;;;;;9.23;3.65;;;;;;;;;;5032190;28;20637;-68
2023/03/28 05:18:43;;;;;;;12.18;3.10;;;;;;;;;;5032729;28;20087;-68
2023/03/28 05:21:09;;;;;;;11.95;3.70;;;;;;;;;;5032832;28;20113;-70
2023/03/28 05:23:35;;;;;;;12.18;3.20;;;;;;;;;;5032705;28;20109;-73
2023/03/28 05:26:01;;;;;;;12.68;3.50;;;;;;;;;;5034494;28;20026;-63
2023/03/28 05:28:28;;;;;;;12.15;3.25;;;;;;;;;;5038526;28;20084;-63
2023/03/28 05:30:54;;;;;;;8.45;2.42;;;;;;;;;;5032014;28;20026;-62
2023/03/28 05:33:20;;;;;;;8.88;2.72;;;;;;;;;;5032457;28;20072;-63
2023/03/28 05:35:47;;;;;;;7.50;2.70;;;;;;;;;;5032596;28;20028;-62
2023/03/28 05:38:13;;;;;;;14.63;3.50;;;;;;;;;;5031215;28;20025;-64
2023/03/28 05:40:39;;;;;;;16.60;3.17;;;;;;;;;;5032254;28;20041;-62
2023/03/28 05:43:05;;;;;;;7.43;2.38;;;;;;;;;;5032357;28;20561;-61
2023/03/28 05:45:31;;;;;;;10.88;2.95;;;;;;;;;;5059222;28;20025;-61
2023/03/28 05:47:58;;;;;;;16.38;3.88;;;;;;;;;;5071900;28;20052;-63
2023/03/28 05:50:25;;;;;;;15.32;3.92;;;;;;;;;;5051105;28;20056;-62
2023/03/28 05:52:51;;;;;;;17.67;2.83;;;;;;;;;;5052185;28;20115;-64
2023/03/28 05:55:17;;;;;;;17.05;3.53;;;;;;;;;;5052310;28;20104;-63
2023/03/28 05:57:43;;;;;;;10.15;3.50;;;;;;;;;;5052063;28;20082;-63
2023/03/28 06:00:13;;;;;;;11.10;2.92;;;;;;;;;;5034754;28;20623;-64
2023/03/28 06:02:41;;;;;;;15.05;2.95;;;;;;;;;;5047724;28;20018;-63
2023/03/28 06:05:08;;;;;;;11.75;2.88;;;;;;;;;;5050871;28;20044;-64
2023/03/28 06:07:35;;;;;;;12.15;3.05;;;;;;;;;;5051480;28;20071;-64
2023/03/28 06:10:01;;;;;;;14.88;3.45;;;;;;;;;;5050504;28;20021;-65
2023/03/28 06:12:27;;;;;;;10.05;3.42;;;;;;;;;;5051076;28;20527;-63
2023/03/28 06:14:55;;;;;;;11.93;3.13;;;;;;;;;;5044124;28;20017;-62
2023/03/28 06:17:22;;;;;;;10.82;3.08;;;;;;;;;;5033904;28;20171;-63
2023/03/28 06:19:48;;;;;;;17.55;2.78;;;;;;;;;;5031506;28;20504;-64
2023/03/28 06:22:14;;;;;;;10.63;2.60;;;;;;;;;;5049361;28;20119;-63
2023/03/28 06:24:40;;;;;;;12.02;3.00;;;;;;;;;;5051635;28;20025;-64
2023/03/28 06:27:07;;;;;;;14.35;3.13;;;;;;;;;;5043476;28;20470;-64
2023/03/28 06:29:33;;;;;;;10.80;3.30;;;;;;;;;;5031088;28;20489;-65
2023/03/28 06:31:59;;;;;;;17.85;2.92;;;;;;;;;;5031598;28;20021;-64
2023/03/28 06:34:25;;;;;;;16.58;3.20;;;;;;;;;;5031550;28;20494;-65
2023/03/28 06:36:51;;;;;;;16.13;3.08;;;;;;;;;;5032809;28;20059;-65
2023/03/28 06:39:17;;;;;;;12.98;2.78;;;;;;;;;;5036244;28;20064;-66
2023/03/28 06:41:43;;;;;;;16.77;2.80;;;;;;;;;;5051074;28;20441;-65
2023/03/28 06:44:09;;;;;;;12.00;2.67;;;;;;;;;;5039744;28;20022;-66
2023/03/28 06:46:36;;;;;;;16.15;3.13;;;;;;;;;;5031506;28;20113;-65
2023/03/28 06:49:02;;;;;;;8.85;2.25;;;;;;;;;;5031211;28;20022;-66
2023/03/28 06:51:28;;;;;;;7.18;2.20;;;;;;;;;;5033525;28;20025;-67
2023/03/28 06:53:54;;;;;;;15.52;2.70;;;;;;;;;;5048388;28;20029;-67
2023/03/28 06:56:20;;;;;;;13.18;2.75;;;;;;;;;;5039580;28;20017;-66
2023/03/28 06:58:46;;;;;;;11.13;2.63;;;;;;;;;;5031099;28;20030;-65
2023/03/28 07:01:12;;;;;;;10.63;2.33;;;;;;;;;;5031090;28;20175;-66
2023/03/28 07:03:39;;;;;;;11.48;2.30;;;;;;;;;;5036750;28;20032;-66
2023/03/28 07:06:06;;;;;;;12.60;2.50;;;;;;;;;;5046049;28;20032;-68
2023/03/28 07:08:32;;;;;;;11.90;2.30;;;;;;;;;;5034430;28;20028;-68
2023/03/28 07:10:58;;;;;;;8.40;2.17;;;;;;;;;;5032362;28;20474;-69
2023/03/28 07:13:24;;;;;;;12.88;2.35;;;;;;;;;;5046496;28;20033;-70
2023/03/28 07:16:10;;;;;;;11.88;2.25;;;;;;;;;;5036134;28;20025;-69
2023/03/28 07:18:37;;;;;;;13.50;2.40;;;;;;;;;;5049086;28;20060;-70
2023/03/28 07:21:07;;;;;;;7.88;2.22;;;;;;;;;;5045112;28;20035;-71
2023/03/28 07:23:34;;;;;;;6.05;2.10;;;;;;;;;;5031067;28;20475;-74
2023/03/28 07:26:00;;;;;;;12.80;2.10;;;;;;;;;;5042065;28;20385;-74
2023/03/28 07:28:26;;;;;;;8.98;1.83;;;;;;;;;;5041689;28;20029;-73
2023/03/28 07:30:53;;;;;;;11.60;1.90;;;;;;;;;;5049409;28;20025;-71
2023/03/28 07:33:19;;;;;;;16.58;2.70;;;;;;;;;;5050591;28;20068;-70
2023/03/28 07:35:45;;;;;;;9.65;2.30;;;;;;;;;;5050732;28;20424;-68
2023/03/28 07:38:11;;;;;;;13.43;2.70;;;;;;;;;;5050696;28;20104;-67
2023/03/28 07:40:37;;;;;;;14.70;2.38;;;;;;;;;;5033699;28;20534;-66
2023/03/28 07:43:03;;;;;;;12.18;2.42;;;;;;;;;;5034544;28;20048;-65
2023/03/28 07:45:30;;;;;;;6.35;2.42;;;;;;;;;;5049205;28;20424;-66
2023/03/28 07:47:56;;;;;;;21.75;2.97;;;;;;;;;;5054240;28;20111;-67
2023/03/28 07:50:22;;;;;;;10.70;2.78;;;;;;;;;;5054130;28;20021;-68
2023/03/28 07:52:48;;;;;;;9.20;2.60;;;;;;;;;;5052657;28;20032;-68
2023/03/28 07:55:15;;;;;;;10.88;2.65;;;;;;;;;;5054111;28;20032;-67
2023/03/28 07:57:41;;;;;;;20.42;2.30;;;;;;;;;;5054409;28;20359;-68
2023/03/28 08:00:12;;;;;;;10.07;2.50;;;;;;;;;;5051788;28;20044;-69
2023/03/28 08:02:41;;;;;;;11.13;2.58;;;;;;;;;;5034362;28;20026;-69
2023/03/28 08:05:07;;;;;;;11.35;2.75;;;;;;;;;;5033976;28;20087;-70
2023/03/28 08:07:34;;;;;;;8.15;2.78;;;;;;;;;;5034250;28;20021;-71
2023/03/28 08:10:00;;;;;;;11.02;2.45;;;;;;;;;;5034069;28;20394;-72
2023/03/28 08:12:27;;;;;;;13.70;3.05;;;;;;;;;;5033565;28;20104;-73
2023/03/28 08:14:53;;;;;;;14.20;3.15;;;;;;;;;;5033901;28;20022;-73
2023/03/28 08:17:19;;;;;;;8.90;2.05;;;;;;;;;;5033909;28;20100;-74
2023/03/28 08:19:45;;;;;;;10.85;2.10;;;;;;;;;;5032500;28;20017;-74
2023/03/28 08:22:11;;;;;;;14.43;2.38;;;;;;;;;;5033764;28;20486;-75
2023/03/28 08:24:39;;;;;;;9.38;2.08;;;;;;;;;;5033889;28;20033;-76
2023/03/28 08:27:05;;;;;;;19.38;2.63;;;;;;;;;;5033220;28;20029;-77
2023/03/28 08:29:31;;;;;;;6.72;1.90;;;;;;;;;;5033491;28;20025;-77
2023/03/28 08:31:57;;;;;;;10.38;2.30;;;;;;;;;;5033721;28;20104;-78
2023/03/28 08:34:23;;;;;;;15.77;2.58;;;;;;;;;;5033611;28;20399;-78
2023/03/28 08:36:49;;;;;;;7.95;1.92;;;;;;;;;;5033647;28;20029;-80
2023/03/28 08:39:15;;;;;;;12.27;2.30;;;;;;;;;;5033468;28;20029;-79
2023/03/28 08:41:41;;;;;;;9.90;2.05;;;;;;;;;;5032800;28;20401;-77
2023/03/28 08:44:26;;;;;;;7.10;1.92;;;;;;;;;;5033561;28;20040;-78
2023/03/28 08:46:55;;;;;;;7.55;1.83;;;;;;;;;;5033701;28;20501;-80
2023/03/28 08:49:22;;;;;;;10.05;1.90;;;;;;;;;;5049191;28;20029;-81
2023/03/28 08:51:52;;;;;;;9.80;2.92;;;;;;;;;;5033128;28;20349;-82
2023/03/28 08:54:21;;;;;;;10.93;2.05;;;;;;;;;;5033320;28;20037;-80
2023/03/28 08:56:52;;;;;;;8.38;1.70;;;;;;;;;;5033196;28;20122;-81
2023/03/28 08:59:37;;;;;;;8.40;2.45;;;;;;;;;;5048028;28;20036;-81
2023/03/28 09:02:08;;;;;;;19.85;2.03;;;;;;;;;;5048369;28;20103;-79
2023/03/28 09:04:34;;;;;;;12.15;2.13;;;;;;;;;;5051678;28;20064;-79
2023/03/28 09:07:23;;;;;;;12.05;1.95;;;;;;;;;;5052867;28;20302;-79
2023/03/28 09:10:08;;;;;;;12.13;2.03;;;;;;;;;;5050677;28;20025;-79
2023/03/28 09:12:42;;;;;;;6.60;1.55;;;;;;;;;;5052818;28;20037;-78
2023/03/28 09:15:11;;;;;;;4.97;1.60;;;;;;;;;;5052851;28;20049;-77
2023/03/28 09:17:43;;;;;;;6.07;1.55;;;;;;;;;;5033103;28;20037;-78
2023/03/28 09:20:31;;;;;;;5.65;2.20;;;;;;;;;;5033055;28;20392;-78
2023/03/28 09:23:03;;;;;;;6.85;1.80;;;;;;;;;;5032792;28;20036;-76
2023/03/28 09:25:36;;;;;;;10.50;2.05;;;;;;;;;;5032490;28;20048;-78
2023/03/28 09:28:11;;;;;;;10.88;2.20;;;;;;;;;;5031745;28;20029;-80
2023/03/28 09:30:40;;;;;;;13.82;1.75;;;;;;;;;;5032789;28;20029;-79
2023/03/28 09:33:12;;;;;;;10.20;1.70;;;;;;;;;;5030837;28;20402;-78
2023/03/28 09:35:39;;;;;;;12.68;2.35;;;;;;;;;;5033143;28;20021;-75
2023/03/28 09:38:08;;;;;;;12.98;2.28;;;;;;;;;;5031324;28;20017;-74
2023/03/28 09:40:35;;;;;;;18.73;2.35;;;;;;;;;;5032204;28;20124;-72
2023/03/28 09:43:01;;;;;;;6.10;2.17;;;;;;;;;;5032316;28;20029;-72
2023/03/28 09:45:36;;;;;;;11.73;2.28;;;;;;;;;;5032547;28;20017;-74
2023/03/28 09:48:04;;;;;;;6.22;1.98;;;;;;;;;;5032848;28;20029;-77
2023/03/28 09:50:30;;;;;;;12.50;2.83;;;;;;;;;;5031948;28;20044;-79
2023/03/28 09:52:57;;;;;;;9.35;2.00;;;;;;;;;;5032416;28;20033;-79
2023/03/28 09:55:25;;;;;;;7.82;1.83;;;;;;;;;;5032183;28;20495;-79
2023/03/28 09:58:00;;;;;;;4.55;1.80;;;;;;;;;;5032212;28;20080;-77
2023/03/28 10:00:26;;;;;;;3.70;1.42;;;;;;;;;;5032026;28;20160;-79
2023/03/28 10:02:53;;;;;;;9.55;1.73;;;;;;;;;;5031529;28;20113;-80
2023/03/28 10:05:33;;;;;;;5.20;1.52;;;;;;;;;;5032153;28;20022;-84
2023/03/28 10:08:02;;;;;;;5.82;1.77;;;;;;;;;;5033027;28;20026;-84
2023/03/28 10:10:28;;;;;;;13.75;1.80;;;;;;;;;;5033070;28;20144;-84
2023/03/28 10:13:01;;;;;;;12.88;2.35;;;;;;;;;;5031109;28;20037;-76
2023/03/28 10:15:45;;;;;;;12.00;2.20;;;;;;;;;;5031747;28;20025;-70
2023/03/28 10:18:16;;;;;;;12.88;2.20;;;;;;;;;;5031636;28;20385;-66
2023/03/28 10:20:42;;;;;;;6.50;1.52;;;;;;;;;;5031802;28;20068;-65
2023/03/28 10:23:11;;;;;;;9.32;1.77;;;;;;;;;;5031186;28;20029;-68
2023/03/28 10:25:39;;;;;;;7.57;2.00;;;;;;;;;;5031743;28;20029;-67
2023/03/28 10:28:06;;;;;;;11.63;2.55;;;;;;;;;;5031422;28;20022;-68
2023/03/28 10:30:33;;;;;;;18.98;3.30;;;;;;;;;;5031506;28;20378;-68
2023/03/28 10:33:10;;;;;;;7.85;1.90;;;;;;;;;;5031369;28;20033;-69
2023/03/28 10:35:40;;;;;;;11.75;2.25;;;;;;;;;;5030307;28;20104;-69
2023/03/28 10:38:14;;;;;;;14.60;3.05;;;;;;;;;;5031601;28;20022;-68
2023/03/28 10:40:40;;;;;;;10.48;2.60;;;;;;;;;;5030575;28;20486;-67
2023/03/28 10:43:11;;;;;;;6.53;2.10;;;;;;;;;;5031653;28;20037;-66
2023/03/28 10:45:39;;;;;;;9.63;2.40;;;;;;;;;;5031422;28;20104;-66
2023/03/28 10:48:14;;;;;;;11.70;1.83;;;;;;;;;;5031375;28;20022;-63
2023/03/28 10:50:43;;;;;;;7.32;2.10;;;;;;;;;;5031146;28;20026;-66
2023/03/28 10:53:18;;;;;;;6.90;2.00;;;;;;;;;;5031159;28;20040;-64
2023/03/28 10:55:56;;;;;;;10.25;3.03;;;;;;;;;;5029861;28;20037;-64
2023/03/28 10:58:39;;;;;;;10.05;1.90;;;;;;;;;;5030656;28;20543;-65
2023/03/28 11:01:18;;;;;;;8.05;2.20;;;;;;;;;;5031234;28;20477;-65
2023/03/28 11:04:03;;;;;;;6.28;1.73;;;;;;;;;;5031487;28;20033;-65
2023/03/28 11:06:29;;;;;;;10.95;2.97;;;;;;;;;;5030906;28;20033;-67
2023/03/28 11:08:55;;;;;;;16.15;2.30;;;;;;;;;;5031624;28;20029;-67
2023/03/28 11:11:39;;;;;;;13.65;2.42;;;;;;;;;;5031026;28;20064;-66
2023/03/28 11:14:08;;;;;;;11.30;2.92;;;;;;;;;;5031018;28;20033;-66
2023/03/28 11:16:42;;;;;;;9.65;2.28;;;;;;;;;;5033903;28;20108;-67
2023/03/28 11:19:17;;;;;;;8.98;2.10;;;;;;;;;;5035043;28;20033;-68
2023/03/28 11:21:56;;;;;;;6.28;2.10;;;;;;;;;;5034671;28;20064;-70
2023/03/28 11:24:38;;;;;;;8.02;2.10;;;;;;;;;;5034958;28;20049;-71
2023/03/28 11:27:10;;;;;;;9.98;2.15;;;;;;;;;;5034945;28;20033;-73
2023/03/28 11:29:38;;;;;;;;;;;;;;;;;;5035468;28;20018;-74
2023/03/28 11:32:13;;;;;;;11.93;3.10;;;;;;;;;;5042781;28;20151;-74
2023/03/28 11:34:51;;;;;;;9.90;2.50;;;;;;;;;;5054629;28;20104;-73
2023/03/28 11:37:23;;;;;;;9.70;2.63;;;;;;;;;;5054621;28;20103;-73
2023/03/28 11:39:56;;;;;;;13.43;3.13;;;;;;;;;;5054897;28;20040;-73
2023/03/28 11:42:27;;;;;;;10.40;2.58;;;;;;;;;;5055367;28;20037;-72
2023/03/28 11:45:13;;;;;;;9.95;2.55;;;;;;;;;;5055085;28;20032;-72
2023/03/28 11:47:50;;;;;;;6.32;2.03;;;;;;;;;;5054327;28;20397;-72
2023/03/28 11:50:18;;;;;;;12.27;2.05;;;;;;;;;;5054207;28;20094;-73
2023/03/28 11:52:46;;;;;;;8.93;1.90;;;;;;;;;;5054388;28;20068;-70
2023/03/28 11:55:19;;;;;;;9.15;2.20;;;;;;;;;;5054274;28;20013;-71
2023/03/28 11:57:50;;;;;;;6.75;2.13;;;;;;;;;;5053911;28;20082;-71
2023/03/28 12:00:19;;;;;;;11.20;2.38;;;;;;;;;;5054429;28;20029;-71
2023/03/28 12:02:53;;;;;;;8.27;2.63;;;;;;;;;;5054207;28;20064;-71
2023/03/28 12:05:23;;;;;;;6.80;2.35;;;;;;;;;;5045330;28;20485;-70
2023/03/28 12:08:24;;;;;;;5.25;2.15;;;;;;;;;;5034042;28;20052;-70
2023/03/28 12:10:56;;;;;;;5.03;1.67;;;;;;;;;;5031153;28;20029;-70
2023/03/28 12:13:22;;;;;;;12.27;1.88;;;;;;;;;;5033554;28;20053;-70
2023/03/28 12:15:51;;;;;;;7.13;2.92;;;;;;;;;;5032624;28;20037;-70
2023/03/28 12:18:27;;;;;;;6.65;1.75;;;;;;;;;;5033833;28;20071;-69
2023/03/28 12:20:59;;;;;;;14.68;2.03;;;;;;;;;;5034120;28;20025;-69
2023/03/28 12:23:40;;;;;;;3.88;1.77;;;;;;;;;;5034106;28;20045;-69
2023/03/28 12:26:13;;;;;;;7.30;2.23;;;;;;;;;;5033005;28;20429;-68
2023/03/28 12:28:43;;;;;;;7.85;1.92;;;;;;;;;;5033861;28;20108;-68
2023/03/28 12:31:20;;;;;;;9.52;2.35;;;;;;;;;;5033703;28;20059;-68
2023/03/28 12:34:07;;;;;;;6.43;1.70;;;;;;;;;;5032599;28;20073;-69
2023/03/28 12:36:41;;;;;;;7.75;1.67;;;;;;;;;;5033225;28;20454;-68
2023/03/28 12:39:18;;;;;;;5.97;2.75;;;;;;;;;;5033602;28;20028;-68
2023/03/28 12:41:45;;;;;;;6.93;1.63;;;;;;;;;;5031954;28;20137;-68
2023/03/28 12:44:24;;;;;;;6.88;1.67;;;;;;;;;;5032791;28;20112;-68
2023/03/28 12:46:55;;;;;;;7.22;1.65;;;;;;;;;;5033345;28;20033;-68
2023/03/28 12:49:36;;;;;;;10.88;2.28;;;;;;;;;;5033356;28;20026;-68
2023/03/28 12:52:04;;;;;;;9.85;1.83;;;;;;;;;;5033282;28;20580;-67
2023/03/28 12:54:32;;;;;;;9.02;2.25;;;;;;;;;;5033134;28;20029;-69
2023/03/28 12:56:58;;;;;;;8.77;1.90;;;;;;;;;;5033136;28;20056;-68
2023/03/28 12:59:40;;;;;;;8.50;1.77;;;;;;;;;;5032688;28;20057;-69
2023/03/28 13:02:24;;;;;;;5.85;1.92;;;;;;;;;;5033298;28;20040;-67
2023/03/28 13:04:57;;;;;;;5.00;1.88;;;;;;;;;;5033092;28;20373;-67
2023/03/28 13:07:25;;;;;;;8.07;1.90;;;;;;;;;;5031806;28;20057;-68
2023/03/28 13:09:54;;;;;;;8.38;1.60;;;;;;;;;;5032322;28;20033;-68
2023/03/28 13:12:29;;;;;;;6.40;2.00;;;;;;;;;;5032941;28;20381;-68
2023/03/28 13:15:21;;;;;;;12.63;2.05;;;;;;;;;;5032862;28;20589;-68
2023/03/28 13:17:48;;;;;;;7.22;1.70;;;;;;;;;;5045781;28;20381;-67
2023/03/28 13:20:14;;;;;;;11.48;2.22;;;;;;;;;;5052797;28;20094;-67
2023/03/28 13:22:57;;;;;;;6.13;1.95;;;;;;;;;;5052531;28;20029;-67
2023/03/28 13:25:24;;;;;;;2.78;1.30;;;;;;;;;;5052889;28;20021;-67
2023/03/28 13:27:59;;;;;;;3.20;1.58;;;;;;;;;;5050410;28;20422;-68
2023/03/28 13:30:29;;;;;;;11.85;2.35;;;;;;;;;;5050653;28;20082;-67
2023/03/28 13:32:57;;;;;;;6.93;1.90;;;;;;;;;;5051238;28;20045;-68
2023/03/28 13:35:42;;;;;;;11.00;2.08;;;;;;;;;;5051179;28;20059;-67
2023/03/28 13:38:24;;;;;;;6.60;1.52;;;;;;;;;;5052700;28;20120;-66
2023/03/28 13:40:58;;;;;;;6.28;1.90;;;;;;;;;;5052408;28;20658;-66
2023/03/28 13:43:26;;;;;;;8.95;2.13;;;;;;;;;;5052289;28;20078;-66
2023/03/28 13:45:54;;;;;;;7.22;2.30;;;;;;;;;;5051188;28;20021;-66
2023/03/28 13:48:21;;;;;;;6.30;1.52;;;;;;;;;;5038680;28;20029;-66
2023/03/28 13:50:48;;;;;;;6.28;1.85;;;;;;;;;;5031982;28;20086;-67
2023/03/28 13:53:14;;;;;;;8.27;1.92;;;;;;;;;;5032228;28;20046;-67
2023/03/28 13:55:42;;;;;;;9.18;1.75;;;;;;;;;;5032257;28;20491;-67
2023/03/28 13:58:10;;;;;;;6.90;1.85;;;;;;;;;;5032523;28;20034;-66
2023/03/28 14:00:36;;;;;;;8.05;1.90;;;;;;;;;;5032103;28;20022;-66
2023/03/28 14:03:04;;;;;;;11.95;2.65;;;;;;;;;;5032285;28;20036;-67
2023/03/28 14:05:31;;;;;;;6.95;1.70;;;;;;;;;;5031538;28;20032;-68
2023/03/28 14:08:20;;;;;;;10.90;2.15;;;;;;;;;;5031370;28;20041;-67
2023/03/28 14:10:46;;;;;;;10.32;2.00;;;;;;;;;;5031883;28;20510;-66
2023/03/28 14:13:21;;;;;;;6.97;2.05;;;;;;;;;;5031672;28;20256;-66
2023/03/28 14:15:47;;;;;;;11.73;2.28;;;;;;;;;;5031893;28;20055;-66
2023/03/28 14:18:18;;;;;;;11.25;2.70;;;;;;;;;;5031309;28;20034;-67
2023/03/28 14:20:45;;;;;;;7.67;2.27;;;;;;;;;;5030344;28;20079;-66
2023/03/28 14:23:25;;;;;;;6.80;2.13;;;;;;;;;;5031704;28;20027;-67
2023/03/28 14:25:51;;;;;;;10.20;2.50;;;;;;;;;;5031780;28;20022;-66
2023/03/28 14:28:17;;;;;;;15.55;3.75;;;;;;;;;;5031722;28;20045;-67
2023/03/28 14:30:43;;;;;;;11.13;2.83;;;;;;;;;;5031798;28;20028;-66
2023/03/28 14:33:09;;;;;;;9.93;2.42;;;;;;;;;;5030398;28;20099;-67
2023/03/28 14:35:36;;;;;;;5.53;2.35;;;;;;;;;;5033492;28;20075;-66
2023/03/28 14:38:07;;;;;;;7.72;2.30;;;;;;;;;;5044908;28;20032;-67
2023/03/28 14:40:36;;;;;;;8.07;1.73;;;;;;;;;;5051320;28;20505;-67
2023/03/28 14:43:08;;;;;;;8.63;2.25;;;;;;;;;;5040446;28;20374;-66
2023/03/28 14:45:35;;;;;;;;;;;;;;;;;;5034640;28;20025;-66
2023/03/28 14:48:02;;;;;;;7.15;2.00;;;;;;;;;;5039272;28;19927;-67
2023/03/28 14:50:32;;;;;;;15.57;2.65;;;;;;;;;;5050269;28;20024;-67
2023/03/28 14:53:03;;;;;;;6.50;1.98;;;;;;;;;;5043588;28;20037;-66